Time;durP1;ratioP1;P1;durP2;ratioP2;P2;SDS_P1;SDS_P2;PMS_P1;PMS_P2;Temp;Humidity;BMP_temperature;BMP_pressure;BME280_temperature;BME280_humidity;BME280_pressure;Samples;Min_cycle;Max_cycle;Signal;HPM_P1;HPM_P2
2021/04/17 00:01:35;;;;;;;13.75;9.00;;;5.40;99.90;;;;;;5054866;28;20224;-74
2021/04/17 00:04:03;;;;;;;11.80;8.60;;;5.40;99.90;;;;;;5039188;28;20228;-75
2021/04/17 00:06:31;;;;;;;15.10;10.18;;;5.30;99.90;;;;;;5034447;28;20229;-73
2021/04/17 00:08:58;;;;;;;9.57;7.93;;;5.30;99.90;;;;;;5050246;28;20562;-74
2021/04/17 00:11:25;;;;;;;14.82;8.15;;;5.30;99.90;;;;;;5034462;28;20589;-73
2021/04/17 00:13:51;;;;;;;12.50;8.68;;;5.40;99.90;;;;;;5034077;28;20265;-73
2021/04/17 00:16:18;;;;;;;11.40;8.98;;;5.40;99.90;;;;;;5032870;28;20229;-74
2021/04/17 00:18:46;;;;;;;15.07;9.55;;;5.40;99.90;;;;;;5049894;28;20279;-74
2021/04/17 00:21:12;;;;;;;13.75;8.63;;;5.30;99.90;;;;;;5053844;28;20251;-75
2021/04/17 00:23:39;;;;;;;13.95;8.15;;;5.30;99.90;;;;;;5055404;28;20618;-73
2021/04/17 00:26:05;;;;;;;13.85;8.07;;;5.20;99.90;;;;;;5017846;28;20308;-73
2021/04/17 00:28:32;;;;;;;14.15;8.98;;;5.10;99.90;;;;;;5050451;28;20189;-74
2021/04/17 00:30:59;;;;;;;13.68;9.40;;;5.10;99.90;;;;;;5049498;28;20294;-74
2021/04/17 00:33:26;;;;;;;13.27;9.10;;;5.00;99.90;;;;;;5033943;28;20624;-74
2021/04/17 00:35:53;;;;;;;12.88;7.63;;;5.10;99.90;;;;;;5044184;28;21032;-73
2021/04/17 00:38:19;;;;;;;11.85;7.43;;;5.00;99.90;;;;;;5054795;28;20617;-74
2021/04/17 00:40:46;;;;;;;11.60;8.43;;;5.00;99.90;;;;;;5037496;28;20272;-74
2021/04/17 00:43:12;;;;;;;13.98;8.30;;;5.00;99.90;;;;;;5049986;28;20243;-73
2021/04/17 00:45:39;;;;;;;11.77;7.93;;;4.90;99.90;;;;;;5033935;28;20207;-73
2021/04/17 00:48:06;;;;;;;15.27;8.18;;;4.90;99.90;;;;;;5033553;28;20190;-72
2021/04/17 00:50:33;;;;;;;16.17;8.55;;;5.00;99.90;;;;;;5049053;28;20200;-74
2021/04/17 00:53:00;;;;;;;15.68;7.28;;;4.90;99.90;;;;;;5033184;28;20212;-73
2021/04/17 00:55:26;;;;;;;11.20;8.02;;;4.80;99.90;;;;;;5033339;28;20209;-74
2021/04/17 00:57:56;;;;;;;12.68;8.20;;;4.80;99.90;;;;;;5033779;28;20220;-74
2021/04/17 01:00:23;;;;;;;10.63;7.88;;;4.80;99.90;;;;;;5034390;28;20274;-74
2021/04/17 01:03:26;;;;;;;12.18;7.63;;;4.80;99.90;;;;;;5038011;28;20239;-74
2021/04/17 01:05:57;;;;;;;10.45;6.65;;;4.80;99.90;;;;;;5036386;28;20224;-74
2021/04/17 01:08:27;;;;;;;10.95;6.95;;;4.80;99.90;;;;;;5054156;28;20207;-73
2021/04/17 01:10:58;;;;;;;11.75;7.22;;;4.70;99.90;;;;;;5035329;28;20221;-74
2021/04/17 01:13:26;;;;;;;8.23;5.55;;;4.70;99.90;;;;;;5032736;28;20566;-73
2021/04/17 01:15:54;;;;;;;8.10;6.60;;;4.80;99.90;;;;;;5032100;28;20262;-74
2021/04/17 01:18:23;;;;;;;12.68;6.55;;;4.80;99.90;;;;;;5035123;28;20185;-75
2021/04/17 01:20:52;;;;;;;11.15;5.95;;;4.70;99.90;;;;;;5032186;28;20239;-73
2021/04/17 01:23:31;;;;;;;10.52;6.65;;;4.80;99.90;;;;;;5032722;28;20718;-75
2021/04/17 01:26:06;;;;;;;9.23;6.88;;;4.70;99.90;;;;;;5031592;28;20230;-74
2021/04/17 01:28:38;;;;;;;11.38;7.10;;;4.70;99.90;;;;;;5033841;28;20195;-73
2021/04/17 01:31:09;;;;;;;9.57;6.25;;;4.60;99.90;;;;;;5032014;28;20266;-73
2021/04/17 01:33:51;;;;;;;9.75;6.40;;;4.50;99.90;;;;;;5043162;28;20550;-74
2021/04/17 01:36:19;;;;;;;10.63;6.65;;;4.50;99.90;;;;;;5045314;28;20303;-73
2021/04/17 01:38:51;;;;;;;8.65;6.80;;;4.50;99.90;;;;;;5053265;28;20262;-74
2021/04/17 01:41:22;;;;;;;9.23;6.78;;;4.40;99.90;;;;;;5033045;28;20232;-75
2021/04/17 01:43:52;;;;;;;9.55;6.55;;;4.40;99.90;;;;;;5049026;28;20586;-74
2021/04/17 01:46:22;;;;;;;8.30;6.15;;;4.30;99.90;;;;;;5048145;28;20224;-75
2021/04/17 01:48:58;;;;;;;11.85;6.45;;;4.30;99.90;;;;;;5032230;28;20188;-75
2021/04/17 01:51:27;;;;;;;8.15;5.97;;;4.30;99.90;;;;;;5031988;28;20228;-74
2021/04/17 01:53:56;;;;;;;9.05;6.70;;;4.20;99.90;;;;;;5033238;28;20280;-73
2021/04/17 01:56:24;;;;;;;8.30;7.15;;;4.20;99.90;;;;;;5031548;28;20220;-74
2021/04/17 01:58:52;;;;;;;12.35;7.13;;;4.10;99.90;;;;;;5032029;28;20217;-73
2021/04/17 02:01:20;;;;;;;9.35;6.40;;;4.10;99.90;;;;;;5035436;28;20238;-73
2021/04/17 02:03:47;;;;;;;7.43;6.20;;;4.10;99.90;;;;;;5033309;28;20189;-74
2021/04/17 02:06:14;;;;;;;12.95;7.38;;;4.00;99.90;;;;;;5032303;28;20228;-74
2021/04/17 02:08:41;;;;;;;10.82;7.97;;;3.90;99.90;;;;;;5031777;28;20284;-74
2021/04/17 02:11:08;;;;;;;10.80;7.50;;;3.90;99.90;;;;;;5032301;28;20263;-73
2021/04/17 02:13:40;;;;;;;8.32;7.32;;;4.00;99.90;;;;;;5032888;28;20192;-74
2021/04/17 02:16:16;;;;;;;13.02;7.90;;;4.00;99.90;;;;;;5047683;28;20229;-74
2021/04/17 02:18:54;;;;;;;11.52;6.85;;;4.00;99.90;;;;;;5038827;28;20180;-74
2021/04/17 02:21:28;;;;;;;8.85;6.80;;;4.00;99.90;;;;;;5030957;28;20339;-74
2021/04/17 02:23:55;;;;;;;8.68;7.78;;;4.00;99.90;;;;;;5032173;28;20181;-73
2021/04/17 02:26:21;;;;;;;8.60;6.63;;;4.00;99.90;;;;;;5031861;28;20243;-73
2021/04/17 02:28:48;;;;;;;11.50;7.75;;;4.00;99.90;;;;;;5031726;28;20713;-73
2021/04/17 02:31:14;;;;;;;11.15;7.70;;;4.00;99.90;;;;;;5031972;28;20761;-74
2021/04/17 02:33:41;;;;;;;9.85;7.35;;;4.10;99.90;;;;;;5032344;28;20247;-75
2021/04/17 02:36:07;;;;;;;11.48;7.30;;;4.10;99.90;;;;;;5044029;28;20228;-72
2021/04/17 02:38:34;;;;;;;9.40;7.32;;;4.10;99.90;;;;;;5051061;28;20187;-73
2021/04/17 02:41:01;;;;;;;12.02;6.60;;;4.10;99.90;;;;;;5032315;28;20224;-74
2021/04/17 02:43:27;;;;;;;10.35;7.00;;;4.10;99.90;;;;;;5032421;28;20213;-75
2021/04/17 02:45:54;;;;;;;9.63;6.95;;;4.10;99.90;;;;;;5030648;28;20662;-73
2021/04/17 02:48:20;;;;;;;15.00;7.80;;;4.00;99.90;;;;;;5046898;28;20189;-73
2021/04/17 02:50:47;;;;;;;9.00;7.30;;;3.90;99.90;;;;;;5031569;28;20650;-73
2021/04/17 02:53:13;;;;;;;9.20;6.50;;;3.90;99.90;;;;;;5030896;28;20289;-74
2021/04/17 02:55:40;;;;;;;9.45;6.80;;;3.80;99.90;;;;;;5030452;28;20557;-74
2021/04/17 02:58:06;;;;;;;10.45;7.45;;;3.80;99.90;;;;;;5030887;28;20723;-73
2021/04/17 03:00:33;;;;;;;11.40;7.45;;;3.80;99.90;;;;;;5031724;28;20177;-73
2021/04/17 03:02:59;;;;;;;11.38;7.35;;;3.80;99.90;;;;;;5038223;28;20216;-74
2021/04/17 03:05:25;;;;;;;12.73;6.32;;;3.80;99.90;;;;;;5049984;28;20212;-73
2021/04/17 03:07:52;;;;;;;10.68;7.90;;;3.80;99.90;;;;;;5051881;28;20260;-74
2021/04/17 03:10:18;;;;;;;10.40;8.15;;;3.80;99.90;;;;;;5052124;28;20181;-75
2021/04/17 03:12:45;;;;;;;7.03;6.10;;;3.70;99.90;;;;;;5068052;28;20239;-74
2021/04/17 03:15:11;;;;;;;9.75;7.22;;;3.70;99.90;;;;;;5052471;28;20200;-73
2021/04/17 03:17:38;;;;;;;9.45;5.72;;;3.70;99.90;;;;;;5046298;28;20312;-73
2021/04/17 03:20:07;;;;;;;12.13;7.10;;;3.70;99.90;;;;;;5051983;28;20507;-73
2021/04/17 03:22:35;;;;;;;9.65;7.13;;;3.60;99.90;;;;;;5051456;28;20226;-74
2021/04/17 03:25:04;;;;;;;7.97;7.00;;;3.50;99.90;;;;;;5041285;28;20213;-74
2021/04/17 03:27:30;;;;;;;10.48;7.28;;;3.50;99.90;;;;;;5031523;28;20331;-73
2021/04/17 03:29:57;;;;;;;9.98;7.50;;;3.40;99.90;;;;;;5030857;28;20682;-73
2021/04/17 03:32:23;;;;;;;10.07;6.90;;;3.40;99.90;;;;;;5031602;28;20220;-74
2021/04/17 03:34:50;;;;;;;10.73;7.47;;;3.40;99.90;;;;;;5036496;28;20567;-73
2021/04/17 03:37:16;;;;;;;10.55;6.72;;;3.40;99.90;;;;;;5054050;28;20243;-73
2021/04/17 03:39:42;;;;;;;11.35;7.38;;;3.30;99.90;;;;;;5048644;28;20263;-74
2021/04/17 03:42:09;;;;;;;11.70;7.18;;;3.30;99.90;;;;;;5035780;28;20221;-73
2021/04/17 03:44:35;;;;;;;10.85;7.40;;;3.30;99.90;;;;;;5034379;28;20256;-74
2021/04/17 03:47:02;;;;;;;9.20;7.10;;;3.30;99.90;;;;;;5033670;28;20229;-73
2021/04/17 03:49:28;;;;;;;11.63;7.13;;;3.30;99.90;;;;;;5035636;28;20239;-73
2021/04/17 03:51:54;;;;;;;13.18;6.97;;;3.30;99.90;;;;;;5035256;28;20303;-74
2021/04/17 03:54:21;;;;;;;12.50;8.00;;;3.30;99.90;;;;;;5037952;28;20626;-74
2021/04/17 03:56:47;;;;;;;12.25;7.20;;;3.30;99.90;;;;;;5033679;28;20228;-73
2021/04/17 03:59:14;;;;;;;9.18;6.97;;;3.30;99.90;;;;;;5035634;28;20189;-75
2021/04/17 04:01:40;;;;;;;14.32;8.85;;;3.30;99.90;;;;;;5034709;28;20309;-74
2021/04/17 04:04:07;;;;;;;10.68;7.75;;;3.30;99.90;;;;;;5035450;28;20272;-74
2021/04/17 04:06:33;;;;;;;12.18;7.80;;;3.30;99.90;;;;;;5049815;28;20253;-74
2021/04/17 04:09:00;;;;;;;11.63;7.82;;;3.30;99.90;;;;;;5035653;28;20181;-73
2021/04/17 04:11:26;;;;;;;12.20;8.48;;;3.30;99.90;;;;;;5034696;28;20710;-73
2021/04/17 04:13:53;;;;;;;10.95;8.18;;;3.40;99.90;;;;;;5035387;28;20268;-74
2021/04/17 04:16:19;;;;;;;9.60;8.38;;;3.40;99.90;;;;;;5034405;28;20572;-73
2021/04/17 04:18:46;;;;;;;9.23;7.15;;;3.40;99.90;;;;;;5051112;28;20189;-74
2021/04/17 04:21:12;;;;;;;13.80;7.82;;;3.40;99.90;;;;;;5053362;28;20224;-74
2021/04/17 04:23:38;;;;;;;8.88;7.75;;;3.40;99.90;;;;;;5054905;28;20181;-73
2021/04/17 04:26:05;;;;;;;14.10;8.63;;;3.40;99.90;;;;;;5034666;28;20244;-73
2021/04/17 04:28:32;;;;;;;9.90;7.22;;;3.50;99.90;;;;;;5017465;28;20254;-74
2021/04/17 04:30:58;;;;;;;13.75;9.80;;;3.40;99.90;;;;;;5033157;28;20308;-74
2021/04/17 04:33:25;;;;;;;11.48;8.32;;;3.40;99.90;;;;;;5036419;28;20539;-74
2021/04/17 04:35:52;;;;;;;14.52;7.47;;;3.40;99.90;;;;;;5044130;28;20232;-74
2021/04/17 04:38:18;;;;;;;11.10;7.78;;;3.30;99.90;;;;;;5054312;28;20181;-73
2021/04/17 04:40:45;;;;;;;14.35;8.13;;;3.30;99.90;;;;;;5020952;28;20193;-73
2021/04/17 04:43:11;;;;;;;16.48;9.15;;;3.30;99.90;;;;;;5034107;28;20663;-74
2021/04/17 04:45:38;;;;;;;13.57;8.27;;;3.30;99.90;;;;;;5033260;28;20198;-74
2021/04/17 04:48:09;;;;;;;11.90;8.90;;;3.30;99.90;;;;;;5045073;28;20297;-75
2021/04/17 04:50:39;;;;;;;10.40;7.75;;;3.30;99.90;;;;;;5054165;28;20678;-73
2021/04/17 04:53:06;;;;;;;13.75;8.85;;;3.40;99.90;;;;;;5054640;28;20185;-74
2021/04/17 04:55:32;;;;;;;12.18;7.45;;;3.40;99.90;;;;;;5052149;28;20208;-73
2021/04/17 04:58:01;;;;;;;10.23;8.02;;;3.50;99.90;;;;;;5054618;28;20263;-74
2021/04/17 05:00:27;;;;;;;15.57;7.15;;;3.40;99.90;;;;;;5054329;28;20185;-74
2021/04/17 05:02:54;;;;;;;10.02;8.30;;;3.40;99.90;;;;;;5053923;28;20247;-74
2021/04/17 05:05:20;;;;;;;12.18;8.93;;;3.40;99.90;;;;;;5034957;28;20220;-74
2021/04/17 05:07:47;;;;;;;8.75;7.25;;;3.40;99.90;;;;;;5033747;28;20313;-74
2021/04/17 05:10:13;;;;;;;11.10;7.97;;;3.40;99.90;;;;;;5034130;28;20255;-74
2021/04/17 05:12:40;;;;;;;9.38;8.15;;;3.40;99.90;;;;;;5032491;28;20304;-74
2021/04/17 05:15:07;;;;;;;12.38;8.32;;;3.40;99.90;;;;;;5049597;28;20634;-74
2021/04/17 05:17:34;;;;;;;10.38;7.53;;;3.40;99.90;;;;;;5032401;28;20243;-74
2021/04/17 05:20:00;;;;;;;12.98;8.27;;;3.50;99.90;;;;;;5033747;28;20280;-74
2021/04/17 05:22:27;;;;;;;10.57;7.90;;;3.50;99.90;;;;;;5033572;28;20308;-74
2021/04/17 05:24:53;;;;;;;10.32;7.07;;;3.60;99.90;;;;;;5032182;28;20217;-73
2021/04/17 05:27:20;;;;;;;9.35;7.70;;;3.70;99.90;;;;;;5033286;28;20221;-74
2021/04/17 05:29:46;;;;;;;10.43;7.80;;;3.90;99.90;;;;;;5032347;28;20189;-73
2021/04/17 05:32:13;;;;;;;9.20;7.25;;;4.20;99.90;;;;;;5033303;28;20236;-73
2021/04/17 05:34:39;;;;;;;10.60;6.97;;;4.50;99.90;;;;;;5033573;28;20239;-75
2021/04/17 05:37:06;;;;;;;15.85;8.73;;;4.70;99.90;;;;;;5051610;28;20220;-75
2021/04/17 05:39:33;;;;;;;11.13;7.05;;;4.80;99.90;;;;;;5047216;28;20196;-73
2021/04/17 05:41:59;;;;;;;10.35;6.88;;;4.80;99.90;;;;;;5048227;28;20331;-74
2021/04/17 05:44:26;;;;;;;11.82;8.18;;;4.90;99.90;;;;;;5033583;28;20189;-74
2021/04/17 05:46:56;;;;;;;9.68;7.55;;;5.10;99.90;;;;;;5015408;28;20217;-74
2021/04/17 05:49:23;;;;;;;8.60;6.75;;;5.30;99.90;;;;;;5032190;28;20640;-74
2021/04/17 05:51:49;;;;;;;11.00;7.93;;;5.40;99.90;;;;;;5035280;28;20212;-74
2021/04/17 05:54:17;;;;;;;10.80;7.75;;;5.40;99.90;;;;;;5048626;28;20211;-73
2021/04/17 05:56:44;;;;;;;10.98;8.07;;;5.50;99.90;;;;;;5031539;28;20225;-74
2021/04/17 05:59:11;;;;;;;12.23;9.32;;;5.40;99.90;;;;;;5039222;28;20194;-74
2021/04/17 06:01:37;;;;;;;9.25;8.23;;;5.50;99.90;;;;;;5031004;28;20220;-75
2021/04/17 06:04:05;;;;;;;9.00;7.70;;;5.60;99.90;;;;;;5040735;28;20192;-75
2021/04/17 06:06:31;;;;;;;11.20;7.80;;;6.00;99.90;;;;;;5032431;28;20224;-74
2021/04/17 06:08:57;;;;;;;12.18;8.60;;;6.40;99.90;;;;;;5031653;28;20185;-74
2021/04/17 06:11:24;;;;;;;11.68;8.63;;;6.80;99.90;;;;;;5044532;28;20304;-76
2021/04/17 06:13:53;;;;;;;12.55;8.50;;;7.20;99.90;;;;;;5051692;28;20187;-75
2021/04/17 06:16:19;;;;;;;8.70;7.65;;;7.30;99.90;;;;;;5052094;28;20262;-78
2021/04/17 06:19:04;;;;;;;11.82;8.75;;;7.50;99.90;;;;;;5047901;28;20196;-75
2021/04/17 06:21:31;;;;;;;14.15;8.48;;;7.80;99.90;;;;;;5031214;28;20287;-75
2021/04/17 06:23:57;;;;;;;12.20;8.45;;;7.90;99.90;;;;;;5031091;28;20755;-74
2021/04/17 06:26:24;;;;;;;9.85;7.30;;;;;;;;;;5032107;28;20283;-74
2021/04/17 06:28:51;;;;;;;12.65;7.75;;;8.60;99.90;;;;;;5031359;28;20282;-74
2021/04/17 06:31:18;;;;;;;10.40;8.30;;;8.90;99.90;;;;;;5030934;28;20583;-74
2021/04/17 06:33:44;;;;;;;10.88;7.55;;;8.80;99.90;;;;;;5034850;28;20243;-74
2021/04/17 06:36:11;;;;;;;9.52;7.28;;;8.90;99.90;;;;;;5047158;28;20595;-74
2021/04/17 06:38:37;;;;;;;10.15;6.60;;;9.10;99.60;;;;;;5031248;28;20297;-73
2021/04/17 06:41:07;;;;;;;12.43;7.77;;;9.10;98.90;;;;;;5031664;28;20237;-74
2021/04/17 06:43:35;;;;;;;11.80;7.50;;;9.40;99.00;;;;;;5052162;28;20503;-74
2021/04/17 06:46:03;;;;;;;7.77;6.40;;;9.40;98.40;;;;;;5049983;28;20461;-75
2021/04/17 06:48:32;;;;;;;7.83;6.43;;;9.70;97.80;;;;;;5047041;28;20798;-75
2021/04/17 06:51:03;;;;;;;9.70;6.53;;;9.90;96.50;;;;;;5046778;28;20447;-74
2021/04/17 06:53:33;;;;;;;9.70;6.70;;;10.10;94.60;;;;;;5050922;28;20920;-74
2021/04/17 06:56:00;;;;;;;8.20;6.50;;;10.10;95.00;;;;;;5047148;28;20827;-77
2021/04/17 06:58:30;;;;;;;9.70;7.30;;;10.20;94.80;;;;;;5028519;28;20938;-75
2021/04/17 07:00:58;;;;;;;8.33;6.63;;;10.40;94.70;;;;;;5030354;28;20459;-74
2021/04/17 07:03:25;;;;;;;13.40;7.73;;;10.70;93.80;;;;;;5044061;28;20513;-73
2021/04/17 07:05:51;;;;;;;11.47;6.77;;;11.00;92.60;;;;;;5032229;28;20966;-73
2021/04/17 07:08:18;;;;;;;10.90;6.90;;;10.90;92.90;;;;;;5031573;28;20459;-74
2021/04/17 07:10:44;;;;;;;9.23;6.33;;;11.00;92.70;;;;;;5031520;28;20440;-74
2021/04/17 07:13:13;;;;;;;10.37;7.20;;;11.10;91.20;;;;;;5014470;28;20527;-74
2021/04/17 07:15:42;;;;;;;12.53;6.77;;;11.00;91.60;;;;;;5060315;28;20442;-73
2021/04/17 07:18:35;;;;;;;15.23;7.23;;;11.20;89.00;;;;;;5036881;28;20564;-75
2021/04/17 07:21:15;;;;;;;12.73;7.63;;;11.00;91.40;;;;;;5031663;28;20456;-76
2021/04/17 07:23:46;;;;;;;12.83;7.70;;;11.00;91.30;;;;;;5048489;28;20417;-75
2021/04/17 07:26:13;;;;;;;10.70;6.60;;;11.30;90.40;;;;;;5031156;28;20475;-77
2021/04/17 07:28:55;;;;;;;16.43;7.47;;;11.40;90.90;;;;;;5032736;28;20528;-78
2021/04/17 07:31:29;;;;;;;12.03;7.20;;;11.50;90.70;;;;;;5030451;28;20535;-75
2021/04/17 07:33:57;;;;;;;16.43;7.57;;;12.70;83.90;;;;;;5046329;28;20448;-75
2021/04/17 07:36:48;;;;;;;8.53;7.37;;;12.80;80.80;;;;;;5046647;28;20476;-75
2021/04/17 07:39:34;;;;;;;10.90;6.63;;;12.80;77.50;;;;;;5031971;28;20533;-76
2021/04/17 07:42:12;;;;;;;10.20;7.60;;;13.40;75.90;;;;;;5046694;28;20517;-74
2021/04/17 07:44:47;;;;;;;11.97;7.40;;;13.60;72.50;;;;;;5030765;28;20421;-76
2021/04/17 07:47:34;;;;;;;14.90;8.47;;;14.00;69.60;;;;;;5033180;28;20467;-76
2021/04/17 07:50:06;;;;;;;9.60;6.60;;;13.90;68.80;;;;;;5067338;28;20423;-76
2021/04/17 07:52:33;;;;;;;11.27;7.53;;;14.30;66.40;;;;;;5050889;28;20481;-75
2021/04/17 07:54:59;;;;;;;14.07;6.77;;;14.30;67.90;;;;;;5024176;28;20555;-76
2021/04/17 07:57:34;;;;;;;12.10;6.60;;;14.00;68.50;;;;;;5031216;28;20468;-76
2021/04/17 08:00:03;;;;;;;12.57;6.90;;;14.20;69.00;;;;;;5031692;28;20428;-79
2021/04/17 08:02:36;;;;;;;13.13;7.00;;;14.00;69.00;;;;;;5032578;28;20460;-75
2021/04/17 08:05:04;;;;;;;14.37;9.30;;;14.60;64.60;;;;;;5030488;28;20501;-75
2021/04/17 08:07:33;;;;;;;15.40;9.20;;;14.50;64.70;;;;;;5030680;28;20985;-75
2021/04/17 08:10:00;;;;;;;11.60;8.53;;;14.70;63.80;;;;;;5039627;28;20879;-76
2021/04/17 08:12:27;;;;;;;14.60;7.97;;;14.50;64.40;;;;;;5049608;28;20462;-77
2021/04/17 08:14:54;;;;;;;10.70;7.10;;;14.80;61.80;;;;;;5066481;28;20450;-76
2021/04/17 08:17:21;;;;;;;12.10;6.87;;;15.10;61.50;;;;;;5049919;28;20841;-76
2021/04/17 08:19:48;;;;;;;16.13;7.73;;;15.00;62.90;;;;;;5042009;28;20507;-78
2021/04/17 08:22:16;;;;;;;11.00;6.70;;;15.10;60.70;;;;;;5033209;28;20526;-74
2021/04/17 08:24:46;;;;;;;8.90;6.80;;;14.90;62.50;;;;;;5034271;28;20446;-77
2021/04/17 08:27:13;;;;;;;7.77;6.20;;;15.30;59.40;;;;;;5049989;28;20473;-75
2021/04/17 08:29:57;;;;;;;13.37;6.77;;;15.40;58.00;;;;;;5035175;28;20418;-76
2021/04/17 08:32:28;;;;;;;13.30;7.40;;;15.20;57.80;;;;;;5033344;28;20465;-78
2021/04/17 08:35:03;;;;;;;9.10;7.33;;;15.10;58.10;;;;;;5049931;28;20489;-77
2021/04/17 08:37:33;;;;;;;10.50;6.20;;;15.30;57.30;;;;;;5034581;28;20916;-79
2021/04/17 08:40:04;;;;;;;9.20;5.47;;;15.50;56.60;;;;;;5040837;28;20535;-79
2021/04/17 08:42:47;;;;;;;9.23;5.10;;;15.40;59.40;;;;;;5053322;28;20992;-77
2021/04/17 08:45:20;;;;;;;7.43;4.70;;;15.60;54.60;;;;;;5055555;28;20988;-79
2021/04/17 08:47:52;;;;;;;9.47;4.77;;;15.60;56.50;;;;;;5058138;28;20510;-77
2021/04/17 08:50:26;;;;;;;7.37;5.07;;;15.40;57.30;;;;;;5041372;28;20447;-77
2021/04/17 08:52:57;;;;;;;5.50;4.60;;;15.40;55.60;;;;;;5036842;28;20986;-78
2021/04/17 08:55:37;;;;;;;6.57;4.90;;;15.60;55.60;;;;;;5040227;28;20473;-78
2021/04/17 08:58:24;;;;;;;6.77;5.33;;;15.60;53.70;;;;;;5035037;28;20431;-79
2021/04/17 09:00:51;;;;;;;6.77;5.20;;;15.60;52.90;;;;;;5033898;28;20459;-76
2021/04/17 09:03:47;;;;;;;7.57;3.93;;;15.90;53.10;;;;;;5034393;28;20447;-78
2021/04/17 09:06:23;;;;;;;7.27;4.40;;;15.60;54.60;;;;;;5032629;28;20963;-77
2021/04/17 09:09:15;;;;;;;6.03;4.70;;;15.80;53.70;;;;;;5049892;28;20514;-78
2021/04/17 09:12:10;;;;;;;11.23;5.77;;;15.80;53.00;;;;;;5032595;28;20516;-77
2021/04/17 09:14:37;;;;;;;8.30;4.27;;;15.60;52.90;;;;;;5034241;28;20428;-76
2021/04/17 09:17:27;;;;;;;6.17;5.33;;;15.60;52.60;;;;;;5032465;28;20455;-79
2021/04/17 09:19:54;;;;;;;7.53;4.80;;;15.40;52.70;;;;;;5033701;28;20447;-77
2021/04/17 09:22:24;;;;;;;9.10;5.90;;;15.10;54.70;;;;;;5032269;28;20569;-78
2021/04/17 09:25:04;;;;;;;8.63;5.07;;;15.00;54.90;;;;;;5041024;28;20467;-78
2021/04/17 09:27:31;;;;;;;10.33;5.03;;;15.00;54.40;;;;;;5034926;28;20519;-79
2021/04/17 09:30:12;;;;;;;7.13;4.93;;;14.80;56.40;;;;;;5052343;28;20476;-77
2021/04/17 09:32:47;;;;;;;8.30;4.90;;;14.50;57.70;;;;;;5049868;28;21004;-76
2021/04/17 09:35:16;;;;;;;5.83;5.03;;;14.50;56.50;;;;;;5053512;28;20450;-77
2021/04/17 09:37:44;;;;;;;7.40;5.63;;;14.30;57.00;;;;;;5051055;28;20467;-77
2021/04/17 09:40:11;;;;;;;9.10;5.50;;;14.30;57.90;;;;;;5041309;28;20531;-77
2021/04/17 09:42:39;;;;;;;8.00;5.13;;;14.30;59.10;;;;;;5040397;28;20477;-77
2021/04/17 09:45:10;;;;;;;6.90;4.70;;;14.40;59.40;;;;;;5052123;28;20454;-77
2021/04/17 09:48:00;;;;;;;6.67;4.97;;;14.40;58.60;;;;;;5049249;28;20475;-77
2021/04/17 09:50:30;;;;;;;5.37;4.87;;;14.50;58.70;;;;;;5044494;28;20423;-76
2021/04/17 09:53:08;;;;;;;9.50;5.80;;;14.40;61.70;;;;;;5052956;28;20533;-77
2021/04/17 09:55:59;;;;;;;6.43;4.60;;;14.20;57.10;;;;;;5051253;28;20470;-77
2021/04/17 09:58:36;;;;;;;6.67;5.77;;;14.10;60.50;;;;;;5052023;28;20469;-77
2021/04/17 10:01:06;;;;;;;6.83;5.50;;;14.10;59.70;;;;;;5034369;28;20478;-77
2021/04/17 10:03:35;;;;;;;7.27;5.37;;;14.10;65.10;;;;;;5036591;28;20775;-78
2021/04/17 10:06:02;;;;;;;9.83;5.30;;;14.40;57.60;;;;;;5046905;28;20464;-76
2021/04/17 10:08:37;;;;;;;8.30;4.50;;;14.40;58.10;;;;;;5051355;28;20470;-78
2021/04/17 10:11:21;;;;;;;6.57;5.37;;;14.40;58.30;;;;;;5045294;28;20471;-79
2021/04/17 10:13:50;;;;;;;8.90;5.00;;;14.40;58.60;;;;;;5045825;28;20446;-79
2021/04/17 10:16:26;;;;;;;7.03;4.60;;;14.40;57.90;;;;;;5050716;28;20471;-77
2021/04/17 10:18:53;;;;;;;9.30;5.83;;;14.40;59.80;;;;;;5050416;28;20435;-80
2021/04/17 10:21:29;;;;;;;6.80;5.37;;;14.30;58.50;;;;;;5051739;28;20476;-78
2021/04/17 10:24:36;;;;;;;6.97;6.27;;;14.20;61.80;;;;;;5052215;28;20449;-77
2021/04/17 10:27:10;;;;;;;10.40;5.93;;;14.10;61.70;;;;;;5028107;28;21067;-80
2021/04/17 10:29:41;;;;;;;9.43;7.40;;;14.10;61.40;;;;;;5012581;28;20478;-79
2021/04/17 10:32:26;;;;;;;12.13;5.40;;;13.90;60.50;;;;;;5031951;28;20465;-78
2021/04/17 10:35:15;;;;;;;9.10;6.77;;;13.70;64.40;;;;;;5050648;28;20547;-77
2021/04/17 10:37:47;;;;;;;7.93;6.40;;;13.50;63.30;;;;;;5051815;28;20513;-80
2021/04/17 10:40:25;;;;;;;9.07;6.33;;;13.40;64.40;;;;;;5050496;28;20554;-80
2021/04/17 10:42:57;;;;;;;6.90;6.07;;;13.40;65.80;;;;;;5043256;28;20484;-77
2021/04/17 10:45:29;;;;;;;8.23;6.73;;;13.40;62.50;;;;;;5046496;28;20490;-76
2021/04/17 10:48:05;;;;;;;8.63;7.60;;;13.20;63.00;;;;;;5042219;28;20476;-78
2021/04/17 10:50:38;;;;;;;7.83;6.90;;;13.00;63.70;;;;;;5030973;28;20432;-79
2021/04/17 10:53:08;;;;;;;8.27;7.47;;;12.80;64.40;;;;;;5044895;28;20459;-77
2021/04/17 10:55:38;;;;;;;8.73;6.70;;;12.70;67.90;;;;;;5037277;28;20518;-79
2021/04/17 10:58:05;;;;;;;10.30;6.40;;;12.90;65.90;;;;;;5062723;28;21007;-75
2021/04/17 11:00:35;;;;;;;7.23;6.40;;;13.00;67.00;;;;;;5051578;28;20801;-75
2021/04/17 11:03:03;;;;;;;7.87;6.67;;;13.20;63.90;;;;;;5050994;28;20450;-78
2021/04/17 11:05:32;;;;;;;11.80;8.50;;;13.30;62.40;;;;;;5033105;28;20532;-78
2021/04/17 11:08:03;;;;;;;8.57;7.77;;;13.20;61.40;;;;;;5051500;28;20459;-77
2021/04/17 11:10:36;;;;;;;7.53;6.70;;;13.10;60.80;;;;;;5041689;28;20516;-77
2021/04/17 11:13:11;;;;;;;7.67;6.97;;;13.00;61.40;;;;;;5050868;28;20467;-78
2021/04/17 11:15:44;;;;;;;8.60;7.50;;;12.90;59.50;;;;;;5051261;28;20964;-76
2021/04/17 11:18:12;;;;;;;15.00;9.20;;;13.00;62.70;;;;;;5036645;28;20491;-76
2021/04/17 11:20:48;;;;;;;10.40;9.23;;;13.00;64.30;;;;;;5034885;28;20439;-76
2021/04/17 11:23:36;;;;;;;9.10;7.77;;;13.10;64.90;;;;;;5048496;28;20502;-79
2021/04/17 11:26:14;;;;;;;9.30;8.07;;;13.00;65.10;;;;;;5045736;28;20475;-78
2021/04/17 11:28:44;;;;;;;8.63;7.73;;;13.00;64.70;;;;;;5049716;28;20516;-80
2021/04/17 11:31:15;;;;;;;9.33;7.80;;;13.00;61.50;;;;;;5050775;28;20521;-78
2021/04/17 11:33:41;;;;;;;9.77;8.77;;;12.90;64.00;;;;;;5044662;28;20529;-79
2021/04/17 11:36:09;;;;;;;15.30;8.53;;;12.90;65.80;;;;;;5049009;28;20462;-78
2021/04/17 11:38:36;;;;;;;10.50;8.27;;;12.80;65.70;;;;;;5051677;28;20423;-81
2021/04/17 11:41:03;;;;;;;8.70;7.80;;;12.80;66.40;;;;;;5043130;28;20967;-77
2021/04/17 11:43:30;;;;;;;14.70;9.23;;;12.90;67.40;;;;;;5051614;28;20420;-79
2021/04/17 11:45:57;;;;;;;10.10;8.60;;;13.10;69.50;;;;;;5032596;28;20822;-76
2021/04/17 11:48:25;;;;;;;13.17;8.80;;;13.30;66.90;;;;;;5040046;28;20507;-77
2021/04/17 11:50:52;;;;;;;12.70;9.77;;;13.50;64.20;;;;;;5040555;28;20528;-80
2021/04/17 11:53:20;;;;;;;11.43;8.93;;;13.50;64.80;;;;;;5049620;28;21011;-80
2021/04/17 11:55:50;;;;;;;10.53;8.00;;;13.50;60.90;;;;;;5036796;28;20475;-79
2021/04/17 11:58:17;;;;;;;11.00;9.30;;;13.40;59.40;;;;;;5052182;28;20936;-79
2021/04/17 12:00:44;;;;;;;14.17;12.80;;;13.40;60.60;;;;;;5053530;28;20447;-79
2021/04/17 12:03:15;;;;;;;14.07;11.17;;;13.20;60.40;;;;;;5049732;28;20485;-78
2021/04/17 12:05:42;;;;;;;10.67;9.57;;;13.10;61.00;;;;;;5053237;28;20530;-79
2021/04/17 12:08:08;;;;;;;9.07;7.97;;;13.10;61.20;;;;;;5055034;28;20458;-80
2021/04/17 12:10:35;;;;;;;10.57;9.47;;;13.20;63.30;;;;;;5042764;28;20448;-78
2021/04/17 12:13:01;;;;;;;12.37;10.30;;;13.40;64.70;;;;;;5034949;28;20510;-78
2021/04/17 12:15:34;;;;;;;14.23;12.97;;;13.70;60.90;;;;;;5047451;28;20458;-81
2021/04/17 12:18:01;;;;;;;11.93;10.60;;;13.70;60.90;;;;;;5041525;28;20475;-78
2021/04/17 12:20:30;;;;;;;12.00;8.47;;;13.80;58.10;;;;;;5052187;28;20946;-78
2021/04/17 12:22:57;;;;;;;9.83;8.80;;;13.90;58.10;;;;;;5054738;28;20465;-79
2021/04/17 12:25:24;;;;;;;10.07;8.30;;;13.90;58.10;;;;;;5041380;28;20465;-79
2021/04/17 12:27:53;;;;;;;8.93;8.10;;;13.90;58.20;;;;;;5034353;28;20919;-79
2021/04/17 12:30:20;;;;;;;8.50;7.70;;;13.90;58.20;;;;;;5053009;28;20443;-81
2021/04/17 12:32:48;;;;;;;10.37;7.83;;;13.70;62.40;;;;;;5051012;28;21081;-78
2021/04/17 12:35:15;;;;;;;9.47;8.57;;;13.70;62.00;;;;;;5053469;28;20529;-78
2021/04/17 12:37:44;;;;;;;8.60;7.80;;;13.80;58.10;;;;;;5053560;28;20900;-80
2021/04/17 12:40:14;;;;;;;12.13;7.73;;;13.90;59.30;;;;;;5052973;28;20454;-81
2021/04/17 12:42:40;;;;;;;9.10;8.30;;;14.00;60.70;;;;;;5068458;28;20878;-80
2021/04/17 12:45:12;;;;;;;9.80;8.90;;;13.90;58.60;;;;;;5054366;28;21054;-81
2021/04/17 12:47:39;;;;;;;9.13;8.27;;;13.90;60.50;;;;;;5052317;28;20471;-78
2021/04/17 12:50:07;;;;;;;12.27;11.00;;;13.90;62.80;;;;;;5052215;28;20505;-79
2021/04/17 12:52:35;;;;;;;10.97;9.83;;;14.00;60.10;;;;;;5053795;28;20868;-78
2021/04/17 12:55:03;;;;;;;12.03;10.93;;;14.00;60.00;;;;;;5044012;28;20464;-81
2021/04/17 12:57:29;;;;;;;12.53;10.23;;;14.10;59.50;;;;;;5035929;28;20461;-78
2021/04/17 12:59:56;;;;;;;12.10;10.57;;;14.20;59.20;;;;;;5035759;28;20454;-78